Metar z połowy godziny Komunikat METAR ze strony awiacja.imgw.pl Metar G30 EPSC METAR EPSC 241930Z 12003KT CAVOK 14/09 Q1010 =